Terminal Aerodrome Forecast
Issued by NWS

Home | Current Version | Previous Version | Text Only | Print | Product List | Glossary Off
Versions: 1 2 3 4 5 6 7 8 9 10 11 12 13 14 15 16

000
FTUS43 KBIS 290521
TAFMOT
TAF
KMOT 290521Z 2906/3006 27032G42KT P6SM -SHRA OVC035
     FM290900 27022G32KT P6SM BKN070 BKN100
     FM291200 28020G30KT P6SM SCT120
     FM291500 28025G35KT P6SM FEW060
     FM300100 27010KT P6SM SKC=

USA.gov is the U.S. government's official web portal to all federal, state and local government web resources and services.